sensor_id;sensor_type;location;lat;lon;timestamp;P1;durP1;ratioP1;P2;durP2;ratioP2
19861;SDS011;10093;48.148;8.542;2022-07-18T00:01:34;3.60;;;2.30;;
19861;SDS011;10093;48.148;8.542;2022-07-18T00:04:00;3.00;;;2.30;;
19861;SDS011;10093;48.148;8.542;2022-07-18T00:06:26;2.55;;;2.35;;
19861;SDS011;10093;48.148;8.542;2022-07-18T00:08:52;2.97;;;2.03;;
19861;SDS011;10093;48.148;8.542;2022-07-18T00:11:18;4.65;;;1.83;;
19861;SDS011;10093;48.148;8.542;2022-07-18T00:13:44;2.20;;;2.10;;
19861;SDS011;10093;48.148;8.542;2022-07-18T00:16:10;5.97;;;2.17;;
19861;SDS011;10093;48.148;8.542;2022-07-18T00:18:35;2.65;;;2.25;;
19861;SDS011;10093;48.148;8.542;2022-07-18T00:21:01;4.60;;;2.13;;
19861;SDS011;10093;48.148;8.542;2022-07-18T00:23:27;2.20;;;2.08;;
19861;SDS011;10093;48.148;8.542;2022-07-18T00:25:52;2.53;;;2.33;;
19861;SDS011;10093;48.148;8.542;2022-07-18T00:28:18;2.40;;;2.20;;
19861;SDS011;10093;48.148;8.542;2022-07-18T00:30:44;4.72;;;2.50;;
19861;SDS011;10093;48.148;8.542;2022-07-18T00:33:09;3.63;;;2.20;;
19861;SDS011;10093;48.148;8.542;2022-07-18T00:35:35;2.42;;;2.25;;
19861;SDS011;10093;48.148;8.542;2022-07-18T00:38:01;2.78;;;2.53;;
19861;SDS011;10093;48.148;8.542;2022-07-18T00:40:28;3.05;;;2.72;;
19861;SDS011;10093;48.148;8.542;2022-07-18T00:42:54;2.35;;;2.15;;
19861;SDS011;10093;48.148;8.542;2022-07-18T00:45:19;2.70;;;2.50;;
19861;SDS011;10093;48.148;8.542;2022-07-18T00:47:45;2.70;;;2.50;;
19861;SDS011;10093;48.148;8.542;2022-07-18T00:50:11;3.00;;;2.80;;
19861;SDS011;10093;48.148;8.542;2022-07-18T00:52:37;2.80;;;2.60;;
19861;SDS011;10093;48.148;8.542;2022-07-18T00:55:04;3.55;;;2.50;;
19861;SDS011;10093;48.148;8.542;2022-07-18T00:57:30;2.63;;;2.42;;
19861;SDS011;10093;48.148;8.542;2022-07-18T00:59:56;2.85;;;2.65;;
19861;SDS011;10093;48.148;8.542;2022-07-18T01:02:40;3.03;;;2.50;;
19861;SDS011;10093;48.148;8.542;2022-07-18T01:05:06;2.78;;;2.58;;
19861;SDS011;10093;48.148;8.542;2022-07-18T01:07:33;4.10;;;2.42;;
19861;SDS011;10093;48.148;8.542;2022-07-18T01:10:03;2.67;;;2.47;;
19861;SDS011;10093;48.148;8.542;2022-07-18T01:12:30;2.55;;;2.38;;
19861;SDS011;10093;48.148;8.542;2022-07-18T01:14:56;3.90;;;2.75;;
19861;SDS011;10093;48.148;8.542;2022-07-18T01:17:23;2.88;;;2.67;;
19861;SDS011;10093;48.148;8.542;2022-07-18T01:19:49;3.08;;;2.78;;
19861;SDS011;10093;48.148;8.542;2022-07-18T01:22:16;3.15;;;2.95;;
19861;SDS011;10093;48.148;8.542;2022-07-18T01:24:43;2.70;;;2.50;;
19861;SDS011;10093;48.148;8.542;2022-07-18T01:27:13;3.67;;;2.83;;
19861;SDS011;10093;48.148;8.542;2022-07-18T01:29:39;3.58;;;2.92;;
19861;SDS011;10093;48.148;8.542;2022-07-18T01:32:05;3.60;;;2.78;;
19861;SDS011;10093;48.148;8.542;2022-07-18T01:34:32;4.85;;;2.78;;
19861;SDS011;10093;48.148;8.542;2022-07-18T01:36:59;3.22;;;2.83;;
19861;SDS011;10093;48.148;8.542;2022-07-18T01:39:25;3.08;;;2.80;;
19861;SDS011;10093;48.148;8.542;2022-07-18T01:42:01;3.80;;;3.50;;
19861;SDS011;10093;48.148;8.542;2022-07-18T01:44:29;3.47;;;3.17;;
19861;SDS011;10093;48.148;8.542;2022-07-18T01:46:55;3.25;;;3.05;;
19861;SDS011;10093;48.148;8.542;2022-07-18T01:49:21;4.47;;;3.20;;
19861;SDS011;10093;48.148;8.542;2022-07-18T01:51:48;2.95;;;2.75;;
19861;SDS011;10093;48.148;8.542;2022-07-18T01:54:18;3.42;;;3.10;;
19861;SDS011;10093;48.148;8.542;2022-07-18T01:56:47;3.55;;;3.20;;
19861;SDS011;10093;48.148;8.542;2022-07-18T01:59:13;4.70;;;2.92;;
19861;SDS011;10093;48.148;8.542;2022-07-18T02:01:38;4.10;;;3.65;;
19861;SDS011;10093;48.148;8.542;2022-07-18T02:04:04;3.10;;;2.90;;
19861;SDS011;10093;48.148;8.542;2022-07-18T02:06:30;4.38;;;2.92;;
19861;SDS011;10093;48.148;8.542;2022-07-18T02:08:56;3.25;;;2.95;;
19861;SDS011;10093;48.148;8.542;2022-07-18T02:11:21;4.18;;;3.20;;
19861;SDS011;10093;48.148;8.542;2022-07-18T02:13:47;4.63;;;3.35;;
19861;SDS011;10093;48.148;8.542;2022-07-18T02:16:13;3.42;;;3.13;;
19861;SDS011;10093;48.148;8.542;2022-07-18T02:18:39;3.80;;;3.50;;
19861;SDS011;10093;48.148;8.542;2022-07-18T02:21:04;6.75;;;3.47;;
19861;SDS011;10093;48.148;8.542;2022-07-18T02:23:30;3.58;;;3.30;;
19861;SDS011;10093;48.148;8.542;2022-07-18T02:25:56;3.70;;;3.40;;
19861;SDS011;10093;48.148;8.542;2022-07-18T02:28:21;3.50;;;3.30;;
19861;SDS011;10093;48.148;8.542;2022-07-18T02:30:47;4.03;;;3.30;;
19861;SDS011;10093;48.148;8.542;2022-07-18T02:33:13;3.20;;;3.00;;
19861;SDS011;10093;48.148;8.542;2022-07-18T02:35:42;4.43;;;3.30;;
19861;SDS011;10093;48.148;8.542;2022-07-18T02:38:07;3.03;;;2.83;;
19861;SDS011;10093;48.148;8.542;2022-07-18T02:40:33;4.78;;;3.30;;
19861;SDS011;10093;48.148;8.542;2022-07-18T02:42:59;3.10;;;2.90;;
19861;SDS011;10093;48.148;8.542;2022-07-18T02:45:25;3.83;;;3.53;;
19861;SDS011;10093;48.148;8.542;2022-07-18T02:47:51;3.78;;;3.47;;
19861;SDS011;10093;48.148;8.542;2022-07-18T02:50:18;3.70;;;3.50;;
19861;SDS011;10093;48.148;8.542;2022-07-18T02:52:43;3.75;;;3.45;;
19861;SDS011;10093;48.148;8.542;2022-07-18T02:55:10;4.97;;;3.42;;
19861;SDS011;10093;48.148;8.542;2022-07-18T02:57:37;4.22;;;3.92;;
19861;SDS011;10093;48.148;8.542;2022-07-18T03:00:03;3.50;;;3.20;;
19861;SDS011;10093;48.148;8.542;2022-07-18T03:02:31;3.70;;;3.42;;
19861;SDS011;10093;48.148;8.542;2022-07-18T03:04:57;4.03;;;3.72;;
19861;SDS011;10093;48.148;8.542;2022-07-18T03:07:22;4.80;;;3.80;;
19861;SDS011;10093;48.148;8.542;2022-07-18T03:09:48;3.55;;;3.33;;
19861;SDS011;10093;48.148;8.542;2022-07-18T03:12:14;4.40;;;3.60;;
19861;SDS011;10093;48.148;8.542;2022-07-18T03:14:39;4.43;;;3.50;;
19861;SDS011;10093;48.148;8.542;2022-07-18T03:17:06;4.03;;;3.72;;
19861;SDS011;10093;48.148;8.542;2022-07-18T03:19:31;3.95;;;3.65;;
19861;SDS011;10093;48.148;8.542;2022-07-18T03:21:57;5.03;;;3.67;;
19861;SDS011;10093;48.148;8.542;2022-07-18T03:24:23;4.60;;;3.70;;
19861;SDS011;10093;48.148;8.542;2022-07-18T03:26:49;4.13;;;3.70;;
19861;SDS011;10093;48.148;8.542;2022-07-18T03:29:15;5.00;;;4.05;;
19861;SDS011;10093;48.148;8.542;2022-07-18T03:31:41;4.20;;;3.80;;
19861;SDS011;10093;48.148;8.542;2022-07-18T03:34:06;3.50;;;3.30;;
19861;SDS011;10093;48.148;8.542;2022-07-18T03:36:32;4.00;;;3.65;;
19861;SDS011;10093;48.148;8.542;2022-07-18T03:38:58;4.35;;;3.92;;
19861;SDS011;10093;48.148;8.542;2022-07-18T03:41:23;4.15;;;3.83;;
19861;SDS011;10093;48.148;8.542;2022-07-18T03:43:49;5.75;;;3.85;;
19861;SDS011;10093;48.148;8.542;2022-07-18T03:46:15;4.50;;;4.10;;
19861;SDS011;10093;48.148;8.542;2022-07-18T03:48:40;4.40;;;3.92;;
19861;SDS011;10093;48.148;8.542;2022-07-18T03:51:06;3.83;;;3.53;;
19861;SDS011;10093;48.148;8.542;2022-07-18T03:53:32;4.93;;;4.07;;
19861;SDS011;10093;48.148;8.542;2022-07-18T03:55:58;5.40;;;3.85;;
19861;SDS011;10093;48.148;8.542;2022-07-18T03:58:23;4.63;;;3.60;;
19861;SDS011;10093;48.148;8.542;2022-07-18T04:00:49;4.22;;;3.88;;
19861;SDS011;10093;48.148;8.542;2022-07-18T04:03:15;3.88;;;3.58;;
19861;SDS011;10093;48.148;8.542;2022-07-18T04:05:41;3.67;;;3.38;;
19861;SDS011;10093;48.148;8.542;2022-07-18T04:08:06;4.22;;;3.63;;
19861;SDS011;10093;48.148;8.542;2022-07-18T04:10:32;4.63;;;4.15;;
19861;SDS011;10093;48.148;8.542;2022-07-18T04:12:57;4.22;;;3.85;;
19861;SDS011;10093;48.148;8.542;2022-07-18T04:15:25;4.10;;;3.72;;
19861;SDS011;10093;48.148;8.542;2022-07-18T04:17:51;3.80;;;3.42;;
19861;SDS011;10093;48.148;8.542;2022-07-18T04:20:17;4.57;;;3.72;;
19861;SDS011;10093;48.148;8.542;2022-07-18T04:22:48;3.53;;;3.20;;
19861;SDS011;10093;48.148;8.542;2022-07-18T04:25:16;4.32;;;3.83;;
19861;SDS011;10093;48.148;8.542;2022-07-18T04:27:42;4.40;;;4.00;;
19861;SDS011;10093;48.148;8.542;2022-07-18T04:30:08;3.85;;;3.55;;
19861;SDS011;10093;48.148;8.542;2022-07-18T04:32:34;4.30;;;3.33;;
19861;SDS011;10093;48.148;8.542;2022-07-18T04:35:00;5.90;;;3.70;;
19861;SDS011;10093;48.148;8.542;2022-07-18T04:37:26;3.90;;;3.60;;
19861;SDS011;10093;48.148;8.542;2022-07-18T04:39:55;3.85;;;3.55;;
19861;SDS011;10093;48.148;8.542;2022-07-18T04:42:20;4.13;;;3.83;;
19861;SDS011;10093;48.148;8.542;2022-07-18T04:44:46;3.63;;;3.33;;
19861;SDS011;10093;48.148;8.542;2022-07-18T04:47:11;3.72;;;3.33;;
19861;SDS011;10093;48.148;8.542;2022-07-18T04:49:37;3.97;;;3.60;;
19861;SDS011;10093;48.148;8.542;2022-07-18T04:52:03;3.95;;;3.50;;
19861;SDS011;10093;48.148;8.542;2022-07-18T04:54:28;3.83;;;3.53;;
19861;SDS011;10093;48.148;8.542;2022-07-18T04:56:54;6.90;;;3.60;;
19861;SDS011;10093;48.148;8.542;2022-07-18T04:59:19;4.60;;;3.13;;
19861;SDS011;10093;48.148;8.542;2022-07-18T05:01:45;3.42;;;3.10;;
19861;SDS011;10093;48.148;8.542;2022-07-18T05:04:11;3.78;;;3.47;;
19861;SDS011;10093;48.148;8.542;2022-07-18T05:06:37;4.10;;;3.70;;
19861;SDS011;10093;48.148;8.542;2022-07-18T05:09:02;4.20;;;3.50;;
19861;SDS011;10093;48.148;8.542;2022-07-18T05:11:28;3.40;;;3.20;;
19861;SDS011;10093;48.148;8.542;2022-07-18T05:13:54;5.50;;;3.08;;
19861;SDS011;10093;48.148;8.542;2022-07-18T05:16:19;6.95;;;2.67;;
19861;SDS011;10093;48.148;8.542;2022-07-18T05:18:45;3.38;;;2.78;;
19861;SDS011;10093;48.148;8.542;2022-07-18T05:21:11;2.40;;;2.30;;
19861;SDS011;10093;48.148;8.542;2022-07-18T05:23:36;3.03;;;2.10;;
19861;SDS011;10093;48.148;8.542;2022-07-18T05:26:02;2.30;;;1.83;;
19861;SDS011;10093;48.148;8.542;2022-07-18T05:28:28;1.95;;;1.85;;
19861;SDS011;10093;48.148;8.542;2022-07-18T05:30:53;1.95;;;1.52;;
19861;SDS011;10093;48.148;8.542;2022-07-18T05:33:20;2.00;;;1.80;;
19861;SDS011;10093;48.148;8.542;2022-07-18T05:35:45;2.40;;;2.20;;
19861;SDS011;10093;48.148;8.542;2022-07-18T05:38:11;4.60;;;1.83;;
19861;SDS011;10093;48.148;8.542;2022-07-18T05:40:37;2.65;;;1.65;;
19861;SDS011;10093;48.148;8.542;2022-07-18T05:43:02;1.40;;;1.40;;
19861;SDS011;10093;48.148;8.542;2022-07-18T05:45:28;1.52;;;1.42;;
19861;SDS011;10093;48.148;8.542;2022-07-18T05:47:54;1.55;;;1.45;;
19861;SDS011;10093;48.148;8.542;2022-07-18T05:50:20;1.85;;;1.45;;
19861;SDS011;10093;48.148;8.542;2022-07-18T05:52:48;1.42;;;1.33;;
19861;SDS011;10093;48.148;8.542;2022-07-18T05:55:14;1.70;;;1.60;;
19861;SDS011;10093;48.148;8.542;2022-07-18T05:57:39;1.67;;;1.60;;
19861;SDS011;10093;48.148;8.542;2022-07-18T06:00:08;1.60;;;1.50;;
19861;SDS011;10093;48.148;8.542;2022-07-18T06:02:35;1.70;;;1.42;;
19861;SDS011;10093;48.148;8.542;2022-07-18T06:05:01;1.95;;;1.33;;
19861;SDS011;10093;48.148;8.542;2022-07-18T06:07:27;4.22;;;1.60;;
19861;SDS011;10093;48.148;8.542;2022-07-18T06:09:52;1.13;;;1.13;;
19861;SDS011;10093;48.148;8.542;2022-07-18T06:12:18;4.35;;;1.70;;
19861;SDS011;10093;48.148;8.542;2022-07-18T06:14:44;1.45;;;1.13;;
19861;SDS011;10093;48.148;8.542;2022-07-18T06:17:10;1.58;;;1.48;;
19861;SDS011;10093;48.148;8.542;2022-07-18T06:19:35;1.40;;;1.30;;
19861;SDS011;10093;48.148;8.542;2022-07-18T06:22:01;1.33;;;1.20;;
19861;SDS011;10093;48.148;8.542;2022-07-18T06:24:27;3.05;;;1.35;;
19861;SDS011;10093;48.148;8.542;2022-07-18T06:26:52;3.00;;;1.20;;
19861;SDS011;10093;48.148;8.542;2022-07-18T06:29:18;2.78;;;1.50;;
19861;SDS011;10093;48.148;8.542;2022-07-18T06:31:44;7.35;;;1.77;;
19861;SDS011;10093;48.148;8.542;2022-07-18T06:34:09;5.57;;;1.60;;
19861;SDS011;10093;48.148;8.542;2022-07-18T06:36:35;1.58;;;1.35;;
19861;SDS011;10093;48.148;8.542;2022-07-18T06:39:00;2.20;;;1.20;;
19861;SDS011;10093;48.148;8.542;2022-07-18T06:41:33;5.15;;;1.67;;
19861;SDS011;10093;48.148;8.542;2022-07-18T06:43:59;5.85;;;1.90;;
19861;SDS011;10093;48.148;8.542;2022-07-18T06:46:24;7.93;;;1.60;;
19861;SDS011;10093;48.148;8.542;2022-07-18T06:48:50;9.45;;;1.40;;
19861;SDS011;10093;48.148;8.542;2022-07-18T06:51:16;4.05;;;1.67;;
19861;SDS011;10093;48.148;8.542;2022-07-18T06:53:41;8.35;;;1.42;;
19861;SDS011;10093;48.148;8.542;2022-07-18T06:56:07;2.97;;;1.20;;
19861;SDS011;10093;48.148;8.542;2022-07-18T06:58:33;4.53;;;1.30;;
19861;SDS011;10093;48.148;8.542;2022-07-18T07:00:58;5.88;;;1.52;;
19861;SDS011;10093;48.148;8.542;2022-07-18T07:03:24;7.38;;;1.35;;
19861;SDS011;10093;48.148;8.542;2022-07-18T07:05:50;6.50;;;1.38;;
19861;SDS011;10093;48.148;8.542;2022-07-18T07:08:16;2.65;;;1.30;;
19861;SDS011;10093;48.148;8.542;2022-07-18T07:10:41;2.92;;;1.20;;
19861;SDS011;10093;48.148;8.542;2022-07-18T07:13:07;8.55;;;1.38;;
19861;SDS011;10093;48.148;8.542;2022-07-18T07:15:33;5.72;;;1.30;;
19861;SDS011;10093;48.148;8.542;2022-07-18T07:17:58;4.63;;;1.00;;
19861;SDS011;10093;48.148;8.542;2022-07-18T07:20:24;3.25;;;0.98;;
19861;SDS011;10093;48.148;8.542;2022-07-18T07:22:51;1.88;;;1.20;;
19861;SDS011;10093;48.148;8.542;2022-07-18T07:25:19;2.65;;;1.20;;
19861;SDS011;10093;48.148;8.542;2022-07-18T07:27:46;7.78;;;1.00;;
19861;SDS011;10093;48.148;8.542;2022-07-18T07:30:12;2.47;;;1.02;;
19861;SDS011;10093;48.148;8.542;2022-07-18T07:32:39;4.63;;;1.00;;
19861;SDS011;10093;48.148;8.542;2022-07-18T07:35:07;3.22;;;0.90;;
19861;SDS011;10093;48.148;8.542;2022-07-18T07:37:36;2.33;;;0.90;;
19861;SDS011;10093;48.148;8.542;2022-07-18T07:40:02;19.70;;;1.58;;
19861;SDS011;10093;48.148;8.542;2022-07-18T07:42:29;3.10;;;1.10;;
19861;SDS011;10093;48.148;8.542;2022-07-18T07:44:54;1.48;;;1.00;;
19861;SDS011;10093;48.148;8.542;2022-07-18T07:47:20;4.95;;;1.17;;
19861;SDS011;10093;48.148;8.542;2022-07-18T07:49:45;1.95;;;0.90;;
19861;SDS011;10093;48.148;8.542;2022-07-18T07:52:11;3.72;;;1.17;;
19861;SDS011;10093;48.148;8.542;2022-07-18T07:54:38;3.45;;;1.08;;
19861;SDS011;10093;48.148;8.542;2022-07-18T07:57:05;2.70;;;1.20;;
19861;SDS011;10093;48.148;8.542;2022-07-18T07:59:31;5.85;;;1.17;;
19861;SDS011;10093;48.148;8.542;2022-07-18T08:01:57;5.05;;;1.15;;
19861;SDS011;10093;48.148;8.542;2022-07-18T08:04:23;6.32;;;1.42;;
19861;SDS011;10093;48.148;8.542;2022-07-18T08:06:49;2.78;;;1.30;;
19861;SDS011;10093;48.148;8.542;2022-07-18T08:09:15;3.42;;;1.20;;
19861;SDS011;10093;48.148;8.542;2022-07-18T08:11:41;2.38;;;0.80;;
19861;SDS011;10093;48.148;8.542;2022-07-18T08:14:06;2.15;;;1.20;;
19861;SDS011;10093;48.148;8.542;2022-07-18T08:16:32;3.30;;;1.20;;
19861;SDS011;10093;48.148;8.542;2022-07-18T08:18:58;1.98;;;1.00;;
19861;SDS011;10093;48.148;8.542;2022-07-18T08:21:23;5.55;;;0.82;;
19861;SDS011;10093;48.148;8.542;2022-07-18T08:23:49;7.45;;;1.15;;
19861;SDS011;10093;48.148;8.542;2022-07-18T08:26:15;5.38;;;1.20;;
19861;SDS011;10093;48.148;8.542;2022-07-18T08:28:41;0.63;;;0.63;;
19861;SDS011;10093;48.148;8.542;2022-07-18T08:31:06;3.92;;;0.80;;
19861;SDS011;10093;48.148;8.542;2022-07-18T08:33:32;1.98;;;0.90;;
19861;SDS011;10093;48.148;8.542;2022-07-18T08:35:57;1.42;;;0.63;;
19861;SDS011;10093;48.148;8.542;2022-07-18T08:38:23;3.72;;;0.77;;
19861;SDS011;10093;48.148;8.542;2022-07-18T08:40:49;2.60;;;0.98;;
19861;SDS011;10093;48.148;8.542;2022-07-18T08:43:18;2.85;;;0.65;;
19861;SDS011;10093;48.148;8.542;2022-07-18T08:45:44;2.42;;;1.00;;
19861;SDS011;10093;48.148;8.542;2022-07-18T08:48:14;1.38;;;0.77;;
19861;SDS011;10093;48.148;8.542;2022-07-18T08:50:47;3.38;;;0.80;;
19861;SDS011;10093;48.148;8.542;2022-07-18T08:53:14;4.13;;;0.90;;
19861;SDS011;10093;48.148;8.542;2022-07-18T08:55:41;5.35;;;0.82;;
19861;SDS011;10093;48.148;8.542;2022-07-18T08:58:07;3.10;;;0.88;;
19861;SDS011;10093;48.148;8.542;2022-07-18T09:00:35;3.60;;;0.75;;
19861;SDS011;10093;48.148;8.542;2022-07-18T09:03:01;4.28;;;0.93;;
19861;SDS011;10093;48.148;8.542;2022-07-18T09:05:28;2.47;;;0.90;;
19861;SDS011;10093;48.148;8.542;2022-07-18T09:08:14;2.47;;;0.90;;
19861;SDS011;10093;48.148;8.542;2022-07-18T09:13:25;6.13;;;0.90;;
19861;SDS011;10093;48.148;8.542;2022-07-18T09:18:27;1.08;;;0.70;;
19861;SDS011;10093;48.148;8.542;2022-07-18T09:21:02;2.67;;;0.70;;
19861;SDS011;10093;48.148;8.542;2022-07-18T09:23:29;1.95;;;0.77;;
19861;SDS011;10093;48.148;8.542;2022-07-18T09:25:56;4.65;;;0.75;;
19861;SDS011;10093;48.148;8.542;2022-07-18T09:28:22;1.80;;;0.88;;
19861;SDS011;10093;48.148;8.542;2022-07-18T09:30:48;1.65;;;0.65;;
19861;SDS011;10093;48.148;8.542;2022-07-18T09:33:14;4.47;;;0.80;;
19861;SDS011;10093;48.148;8.542;2022-07-18T09:35:44;3.78;;;1.00;;
19861;SDS011;10093;48.148;8.542;2022-07-18T09:38:14;4.50;;;0.73;;
19861;SDS011;10093;48.148;8.542;2022-07-18T09:40:54;2.67;;;0.60;;
19861;SDS011;10093;48.148;8.542;2022-07-18T09:43:22;4.43;;;0.77;;
19861;SDS011;10093;48.148;8.542;2022-07-18T09:45:50;1.95;;;0.70;;
19861;SDS011;10093;48.148;8.542;2022-07-18T09:48:26;4.00;;;0.88;;
19861;SDS011;10093;48.148;8.542;2022-07-18T09:50:53;11.35;;;0.75;;
19861;SDS011;10093;48.148;8.542;2022-07-18T09:53:23;4.85;;;0.70;;
19861;SDS011;10093;48.148;8.542;2022-07-18T09:58:24;0.95;;;0.80;;
19861;SDS011;10093;48.148;8.542;2022-07-18T10:00:51;6.20;;;0.90;;
19861;SDS011;10093;48.148;8.542;2022-07-18T10:03:19;3.28;;;0.70;;
19861;SDS011;10093;48.148;8.542;2022-07-18T10:05:46;5.78;;;0.90;;
19861;SDS011;10093;48.148;8.542;2022-07-18T10:08:13;6.63;;;0.80;;
19861;SDS011;10093;48.148;8.542;2022-07-18T10:10:42;3.58;;;0.65;;
19861;SDS011;10093;48.148;8.542;2022-07-18T10:13:09;6.00;;;0.75;;
19861;SDS011;10093;48.148;8.542;2022-07-18T10:15:36;2.50;;;0.90;;
19861;SDS011;10093;48.148;8.542;2022-07-18T10:18:04;1.67;;;0.90;;
19861;SDS011;10093;48.148;8.542;2022-07-18T10:20:33;2.45;;;0.85;;
19861;SDS011;10093;48.148;8.542;2022-07-18T10:23:02;2.92;;;1.17;;
19861;SDS011;10093;48.148;8.542;2022-07-18T10:25:38;8.40;;;0.98;;
19861;SDS011;10093;48.148;8.542;2022-07-18T10:28:05;2.28;;;0.98;;
19861;SDS011;10093;48.148;8.542;2022-07-18T10:30:41;29.27;;;2.17;;
19861;SDS011;10093;48.148;8.542;2022-07-18T10:36:24;9.60;;;1.00;;
19861;SDS011;10093;48.148;8.542;2022-07-18T10:39:03;3.35;;;0.90;;
19861;SDS011;10093;48.148;8.542;2022-07-18T10:42:12;4.43;;;0.90;;
19861;SDS011;10093;48.148;8.542;2022-07-18T11:00:29;2.28;;;0.80;;
19861;SDS011;10093;48.148;8.542;2022-07-18T11:03:08;1.08;;;0.60;;
19861;SDS011;10093;48.148;8.542;2022-07-18T11:18:18;1.25;;;0.63;;
19861;SDS011;10093;48.148;8.542;2022-07-18T11:20:44;6.93;;;0.60;;
19861;SDS011;10093;48.148;8.542;2022-07-18T11:23:22;2.72;;;0.55;;
19861;SDS011;10093;48.148;8.542;2022-07-18T11:25:50;4.97;;;0.82;;
19861;SDS011;10093;48.148;8.542;2022-07-18T11:28:21;1.33;;;0.55;;
19861;SDS011;10093;48.148;8.542;2022-07-18T11:31:03;2.97;;;0.80;;
19861;SDS011;10093;48.148;8.542;2022-07-18T11:33:31;5.28;;;0.65;;
19861;SDS011;10093;48.148;8.542;2022-07-18T11:36:05;3.33;;;0.60;;
19861;SDS011;10093;48.148;8.542;2022-07-18T11:38:37;1.23;;;0.50;;
19861;SDS011;10093;48.148;8.542;2022-07-18T11:41:05;1.85;;;0.50;;
19861;SDS011;10093;48.148;8.542;2022-07-18T11:43:30;5.40;;;0.80;;
19861;SDS011;10093;48.148;8.542;2022-07-18T11:48:26;5.70;;;1.00;;
19861;SDS011;10093;48.148;8.542;2022-07-18T11:50:52;7.32;;;0.90;;
19861;SDS011;10093;48.148;8.542;2022-07-18T11:53:17;3.42;;;0.70;;
19861;SDS011;10093;48.148;8.542;2022-07-18T11:55:43;1.50;;;0.63;;
19861;SDS011;10093;48.148;8.542;2022-07-18T11:58:13;2.35;;;0.60;;
19861;SDS011;10093;48.148;8.542;2022-07-18T12:00:40;6.45;;;0.40;;
19861;SDS011;10093;48.148;8.542;2022-07-18T12:03:08;2.97;;;0.55;;
19861;SDS011;10093;48.148;8.542;2022-07-18T12:05:44;1.08;;;0.47;;
19861;SDS011;10093;48.148;8.542;2022-07-18T12:08:34;10.88;;;1.05;;
19861;SDS011;10093;48.148;8.542;2022-07-18T12:21:50;7.32;;;0.80;;
19861;SDS011;10093;48.148;8.542;2022-07-18T12:24:25;5.25;;;0.60;;
19861;SDS011;10093;48.148;8.542;2022-07-18T12:35:07;5.07;;;0.82;;
19861;SDS011;10093;48.148;8.542;2022-07-18T12:37:37;6.38;;;0.80;;
19861;SDS011;10093;48.148;8.542;2022-07-18T12:40:05;1.85;;;0.73;;
19861;SDS011;10093;48.148;8.542;2022-07-18T12:42:34;4.10;;;0.80;;
19861;SDS011;10093;48.148;8.542;2022-07-18T12:45:04;5.53;;;1.02;;
19861;SDS011;10093;48.148;8.542;2022-07-18T12:47:31;3.78;;;1.00;;
19861;SDS011;10093;48.148;8.542;2022-07-18T12:49:57;2.47;;;0.85;;
19861;SDS011;10093;48.148;8.542;2022-07-18T12:52:23;4.00;;;0.80;;
19861;SDS011;10093;48.148;8.542;2022-07-18T12:54:49;4.32;;;0.80;;
19861;SDS011;10093;48.148;8.542;2022-07-18T12:57:15;4.65;;;1.10;;
19861;SDS011;10093;48.148;8.542;2022-07-18T12:59:42;2.97;;;0.90;;
19861;SDS011;10093;48.148;8.542;2022-07-18T13:02:08;1.85;;;0.85;;
19861;SDS011;10093;48.148;8.542;2022-07-18T13:04:33;3.03;;;0.80;;
19861;SDS011;10093;48.148;8.542;2022-07-18T13:06:59;5.65;;;0.90;;
19861;SDS011;10093;48.148;8.542;2022-07-18T13:09:25;1.40;;;0.70;;
19861;SDS011;10093;48.148;8.542;2022-07-18T13:11:50;4.22;;;0.80;;
19861;SDS011;10093;48.148;8.542;2022-07-18T13:14:16;7.65;;;1.10;;
19861;SDS011;10093;48.148;8.542;2022-07-18T13:16:43;5.25;;;1.00;;
19861;SDS011;10093;48.148;8.542;2022-07-18T13:19:10;2.83;;;0.90;;
19861;SDS011;10093;48.148;8.542;2022-07-18T13:21:37;9.00;;;1.20;;
19861;SDS011;10093;48.148;8.542;2022-07-18T13:24:03;8.23;;;1.00;;
19861;SDS011;10093;48.148;8.542;2022-07-18T13:26:29;10.73;;;1.17;;
19861;SDS011;10093;48.148;8.542;2022-07-18T13:28:54;7.30;;;1.20;;
19861;SDS011;10093;48.148;8.542;2022-07-18T13:31:20;11.68;;;1.33;;
19861;SDS011;10093;48.148;8.542;2022-07-18T13:33:45;5.68;;;1.42;;
19861;SDS011;10093;48.148;8.542;2022-07-18T13:36:15;3.97;;;0.85;;
19861;SDS011;10093;48.148;8.542;2022-07-18T13:38:41;14.15;;;1.30;;
19861;SDS011;10093;48.148;8.542;2022-07-18T13:41:08;7.10;;;0.93;;
19861;SDS011;10093;48.148;8.542;2022-07-18T13:43:34;8.93;;;1.00;;
19861;SDS011;10093;48.148;8.542;2022-07-18T13:46:04;7.93;;;0.80;;
19861;SDS011;10093;48.148;8.542;2022-07-18T13:48:30;4.45;;;1.00;;
19861;SDS011;10093;48.148;8.542;2022-07-18T13:50:56;5.82;;;1.30;;
19861;SDS011;10093;48.148;8.542;2022-07-18T13:53:22;5.63;;;1.15;;
19861;SDS011;10093;48.148;8.542;2022-07-18T13:55:47;12.82;;;1.30;;
19861;SDS011;10093;48.148;8.542;2022-07-18T13:58:13;18.08;;;1.35;;
19861;SDS011;10093;48.148;8.542;2022-07-18T14:00:38;21.70;;;1.80;;
19861;SDS011;10093;48.148;8.542;2022-07-18T14:03:04;20.52;;;2.00;;
19861;SDS011;10093;48.148;8.542;2022-07-18T14:05:31;10.52;;;1.50;;
19861;SDS011;10093;48.148;8.542;2022-07-18T14:07:57;8.82;;;1.38;;
19861;SDS011;10093;48.148;8.542;2022-07-18T14:10:22;8.52;;;1.27;;
19861;SDS011;10093;48.148;8.542;2022-07-18T14:12:48;6.32;;;1.15;;
19861;SDS011;10093;48.148;8.542;2022-07-18T14:15:14;4.70;;;1.23;;
19861;SDS011;10093;48.148;8.542;2022-07-18T14:17:40;8.30;;;1.40;;
19861;SDS011;10093;48.148;8.542;2022-07-18T14:20:07;5.72;;;1.20;;
19861;SDS011;10093;48.148;8.542;2022-07-18T14:22:34;7.13;;;1.38;;
19861;SDS011;10093;48.148;8.542;2022-07-18T14:25:00;4.50;;;1.25;;
19861;SDS011;10093;48.148;8.542;2022-07-18T14:27:26;4.00;;;1.23;;
19861;SDS011;10093;48.148;8.542;2022-07-18T14:29:51;7.00;;;1.25;;
19861;SDS011;10093;48.148;8.542;2022-07-18T14:32:17;6.13;;;1.45;;
19861;SDS011;10093;48.148;8.542;2022-07-18T14:34:43;4.78;;;1.30;;
19861;SDS011;10093;48.148;8.542;2022-07-18T14:37:09;3.45;;;1.17;;
19861;SDS011;10093;48.148;8.542;2022-07-18T14:39:34;4.13;;;1.55;;
19861;SDS011;10093;48.148;8.542;2022-07-18T14:42:00;8.85;;;1.30;;
19861;SDS011;10093;48.148;8.542;2022-07-18T14:44:25;3.40;;;0.93;;
19861;SDS011;10093;48.148;8.542;2022-07-18T14:46:52;5.47;;;1.10;;
19861;SDS011;10093;48.148;8.542;2022-07-18T14:49:18;6.80;;;1.08;;
19861;SDS011;10093;48.148;8.542;2022-07-18T14:51:43;10.80;;;1.48;;
19861;SDS011;10093;48.148;8.542;2022-07-18T14:54:09;3.83;;;1.52;;
19861;SDS011;10093;48.148;8.542;2022-07-18T14:56:36;4.85;;;1.30;;
19861;SDS011;10093;48.148;8.542;2022-07-18T14:59:02;7.10;;;1.50;;
19861;SDS011;10093;48.148;8.542;2022-07-18T15:01:28;4.38;;;1.25;;
19861;SDS011;10093;48.148;8.542;2022-07-18T15:03:56;5.70;;;1.30;;
19861;SDS011;10093;48.148;8.542;2022-07-18T15:06:22;3.78;;;1.20;;
19861;SDS011;10093;48.148;8.542;2022-07-18T15:08:48;4.53;;;1.05;;
19861;SDS011;10093;48.148;8.542;2022-07-18T15:11:13;3.60;;;1.10;;
19861;SDS011;10093;48.148;8.542;2022-07-18T15:13:43;1.92;;;0.80;;
19861;SDS011;10093;48.148;8.542;2022-07-18T15:16:09;3.50;;;1.10;;
19861;SDS011;10093;48.148;8.542;2022-07-18T15:18:35;8.27;;;1.10;;
19861;SDS011;10093;48.148;8.542;2022-07-18T15:21:01;8.57;;;1.05;;
19861;SDS011;10093;48.148;8.542;2022-07-18T15:23:26;3.00;;;0.85;;
19861;SDS011;10093;48.148;8.542;2022-07-18T15:25:52;5.40;;;0.85;;
19861;SDS011;10093;48.148;8.542;2022-07-18T15:28:18;3.08;;;1.15;;
19861;SDS011;10093;48.148;8.542;2022-07-18T15:30:44;4.13;;;1.15;;
19861;SDS011;10093;48.148;8.542;2022-07-18T15:33:09;1.58;;;1.02;;
19861;SDS011;10093;48.148;8.542;2022-07-18T15:35:35;5.75;;;1.02;;
19861;SDS011;10093;48.148;8.542;2022-07-18T15:38:01;9.65;;;1.10;;
19861;SDS011;10093;48.148;8.542;2022-07-18T15:40:26;5.65;;;1.00;;
19861;SDS011;10093;48.148;8.542;2022-07-18T15:42:52;3.95;;;1.13;;
19861;SDS011;10093;48.148;8.542;2022-07-18T15:45:17;6.70;;;1.20;;
19861;SDS011;10093;48.148;8.542;2022-07-18T15:47:43;3.42;;;0.98;;